Terminal Aerodrome Forecast
Issued by NWS

Home | Current Version | Previous Version | Text Only | Print | Product List | Glossary On
Versions: 1 2 3 4 5 6 7 8 9 10 11 12 13 14 15 16 17 18 19 20 21 22 23 24 25 26 27
000
FTUS43 KGLD 242320
TAFMCK
TAF
KMCK 242320Z 2500/2524 33012KT P6SM VCSH BKN070
     FM250600 30010KT P6SM SCT200
     FM251100 26008KT P6SM SCT200
     FM252000 26010G20KT P6SM SCT035 BKN060=

USA.gov is the U.S. government's official web portal to all federal, state and local government web resources and services.